WetterOnline ( https://www.wetteronline.ch )

Wetter aktuell Bellavista

Aktuelles Wetter: Capo Bellavista (150m)

6-stündlich | Neueste Meldungen
Ortszeit Temperatur Wetter
Mi, 23.09. 14:00 29.0° C wolkig
Mi, 23.09. 8:00 21.0° C leicht bewölkt
Mi, 23.09. 2:00 20.8° C wolkenlos
Di, 22.09. 20:00 24.2° C leicht bewölkt
Di, 22.09. 14:00 29.0° C leicht bewölkt
Di, 22.09. 8:00 26.2° C leicht bewölkt
Di, 22.09. 2:00 21.8° C wolkenlos
Mo, 21.09. 20:00 24.4° C leicht bewölkt
Ortszeit Temperatur Wetter
Mi, 23.09. 14:00 29.0° C wolkig
Mi, 23.09. 13:55 29° C leicht bewölkt
Mi, 23.09. 13:00 26.8° C leicht bewölkt
Mi, 23.09. 12:55 27° C leicht bewölkt
Mi, 23.09. 12:00 25.0° C wolkig
Mi, 23.09. 11:55 25° C leicht bewölkt
Mi, 23.09. 11:00 22.4° C wolkig
Mi, 23.09. 10:55 22° C leicht bewölkt
Mi, 23.09. 10:00 22.0° C wolkig
Ortszeit Relative Feuchte Sichtweite
Mi, 23.09. 14:00 50% 20 km
Mi, 23.09. 8:00 58% 20 km
Mi, 23.09. 2:00 62% 20 km
Di, 22.09. 20:00 78% 20 km
Di, 22.09. 14:00 60% 30 km
Di, 22.09. 8:00 66% 30 km
Di, 22.09. 2:00 73% 20 km
Mo, 21.09. 20:00 89% 20 km
Ortszeit Relative Feuchte Sichtweite
Mi, 23.09. 14:00 50% 20 km
Mi, 23.09. 13:55 52% >10 km
Mi, 23.09. 13:00 54% 20 km
Mi, 23.09. 12:55 54% >10 km
Mi, 23.09. 12:00 70% 20 km
Mi, 23.09. 11:55 69% >10 km
Mi, 23.09. 11:00 74% 20 km
Mi, 23.09. 10:55 78% >10 km
Mi, 23.09. 10:00 71% 20 km
Ortszeit Niederschlagsmenge Niederschlagsart
Mi, 23.09. 14:00 0.0 l/m2 in 6 Std. -
Mi, 23.09. 8:00 0.0 l/m2 in 12 Std. -
Mi, 23.09. 2:00 0.0 l/m2 in 6 Std. -
Di, 22.09. 20:00 0.0 l/m2 in 12 Std. -
Di, 22.09. 14:00 0.0 l/m2 in 6 Std. -
Di, 22.09. 8:00 0.0 l/m2 in 12 Std. -
Di, 22.09. 2:00 0.0 l/m2 in 6 Std. -
Mo, 21.09. 20:00 0.0 l/m2 in 12 Std. -
Ortszeit Niederschlagsmenge Niederschlagsart
Mi, 23.09. 14:00 keine Meldung -
Mi, 23.09. 13:55 keine Meldung -
Mi, 23.09. 13:00 keine Meldung -
Mi, 23.09. 12:55 keine Meldung -
Mi, 23.09. 12:00 keine Meldung -
Mi, 23.09. 11:55 keine Meldung -
Mi, 23.09. 11:00 keine Meldung -
Mi, 23.09. 10:55 keine Meldung -
Mi, 23.09. 10:00 keine Meldung -
Ortszeit Stärke Spitze Richtung
km/h Bft. km/h Grad Sektor
Mi, 23.09. 14:00 17 3 - 170° S
Mi, 23.09. 8:00 11 2 - 320° NW
Mi, 23.09. 2:00 28 4 - 310° NW
Di, 22.09. 20:00 13 3 - 10° N
Di, 22.09. 14:00 15 3 - 110° O
Di, 22.09. 8:00 4 1 - 310° NW
Di, 22.09. 2:00 19 3 - 320° NW
Mo, 21.09. 20:00 17 3 - 60° NO
Ortszeit Stärke Spitze Richtung
km/h Bft. km/h Grad Sektor
Mi, 23.09. 14:00 17 3 - 170° S
Mi, 23.09. 13:55 17 3 - 170° S
Mi, 23.09. 13:00 9 2 - 170° S
Mi, 23.09. 12:55 9 2 - 170° S
Mi, 23.09. 12:00 6 1 - 230° SW
Mi, 23.09. 11:55 6 1 - 230° SW
Mi, 23.09. 11:00 11 2 - 320° NW
Mi, 23.09. 10:55 11 2 - 320° NW
Mi, 23.09. 10:00 9 2 - 310° NW
Ortszeit Untergrenze Bedeckung Gattung
total tief tief mittel hoch
Mi, 23.09. 14:00 900 m 6/8 2/8 Cu As -
Mi, 23.09. 8:00 2400 m 4/8 4/8 - Ac -
Mi, 23.09. 2:00 - 0/8 0/8 - - -
Di, 22.09. 20:00 1200 m 5/8 5/8 Cb - -
Di, 22.09. 14:00 - 5/8 3/8 Cb - Ci
Di, 22.09. 8:00 600 m 3/8 3/8 Cb - -
Di, 22.09. 2:00 - 0/8 0/8 - - -
Mo, 21.09. 20:00 900 m 5/8 4/8 Cu Ac -
Ortszeit Bedeckungsgrad in Achtel und Wolkenuntergrenze
Mi, 23.09. 14:00 2(900m)
Mi, 23.09. 13:55 1-2(900m)
Mi, 23.09. 13:00 2(900m)
Mi, 23.09. 12:55 1-2(900m)
Mi, 23.09. 12:00 2(900m)
Mi, 23.09. 11:55 1-2(900m)
Mi, 23.09. 11:00 2(900m)
Mi, 23.09. 10:55 1-2(900m)
Mi, 23.09. 10:00 2(900m)
Ortszeit Luftdruck NN (hPa) Tendenz (hPa in 3 Std.)
Mi, 23.09. 14:00 1012 - 1,4
Mi, 23.09. 8:00 1012 0,0
Mi, 23.09. 2:00 1012 - 1,6
Di, 22.09. 20:00 1012 - 0,3
Di, 22.09. 14:00 1014 + 0,7
Di, 22.09. 8:00 1013 - 0,2
Di, 22.09. 2:00 1014 0,0
Mo, 21.09. 20:00 1014 - 0,3
Ortszeit Luftdruck NN (hPa) Tendenz (hPa in 3 Std.)
Mi, 23.09. 14:00 1012 - 1,4
Mi, 23.09. 13:55 1012 keine Meldung
Mi, 23.09. 13:00 1013 0,0
Mi, 23.09. 12:55 1013 keine Meldung
Mi, 23.09. 12:00 1013 + 1,1
Mi, 23.09. 11:55 1014 keine Meldung
Mi, 23.09. 11:00 1013 + 1,8
Mi, 23.09. 10:55 1013 keine Meldung
Mi, 23.09. 10:00 1013 + 1,0
Ortszeit Schneehöhe (cm)
Mi, 23.09. 14:00 -
Mi, 23.09. 8:00 -
Mi, 23.09. 2:00 -
Di, 22.09. 20:00 -
Di, 22.09. 14:00 -
Di, 22.09. 8:00 0
Di, 22.09. 2:00 -
Mo, 21.09. 20:00 -
Ortszeit Schneehöhe (cm)
Mi, 23.09. 14:00 -
Mi, 23.09. 13:55 -
Mi, 23.09. 13:00 -
Mi, 23.09. 12:55 -
Mi, 23.09. 12:00 -
Mi, 23.09. 11:55 -
Mi, 23.09. 11:00 -
Mi, 23.09. 10:55 -
Mi, 23.09. 10:00 -
Link zu dieser Seite / Seite empfehlen

Das Wetter in ...